sensor_id;sensor_type;location;lat;lon;timestamp;P1;durP1;ratioP1;P2;durP2;ratioP2
37309;SDS011;23195;47.744;7.358;2023-12-20T00:00:08;19.83;;;11.37;;
37309;SDS011;23195;47.744;7.358;2023-12-20T00:02:34;24.67;;;12.33;;
37309;SDS011;23195;47.744;7.358;2023-12-20T00:05:00;23.20;;;12.00;;
37309;SDS011;23195;47.744;7.358;2023-12-20T00:07:26;20.50;;;12.00;;
37309;SDS011;23195;47.744;7.358;2023-12-20T00:09:51;19.77;;;11.60;;
37309;SDS011;23195;47.744;7.358;2023-12-20T00:12:17;21.03;;;11.67;;
37309;SDS011;23195;47.744;7.358;2023-12-20T00:14:43;19.60;;;11.57;;
37309;SDS011;23195;47.744;7.358;2023-12-20T00:17:08;18.97;;;10.87;;
37309;SDS011;23195;47.744;7.358;2023-12-20T00:19:34;20.47;;;11.90;;
37309;SDS011;23195;47.744;7.358;2023-12-20T00:22:00;19.37;;;11.47;;
37309;SDS011;23195;47.744;7.358;2023-12-20T00:24:26;18.47;;;10.93;;
37309;SDS011;23195;47.744;7.358;2023-12-20T00:26:52;18.50;;;11.53;;
37309;SDS011;23195;47.744;7.358;2023-12-20T00:29:18;16.13;;;10.13;;
37309;SDS011;23195;47.744;7.358;2023-12-20T00:31:44;17.83;;;10.03;;
37309;SDS011;23195;47.744;7.358;2023-12-20T00:34:09;17.13;;;10.97;;
37309;SDS011;23195;47.744;7.358;2023-12-20T00:36:38;17.83;;;10.47;;
37309;SDS011;23195;47.744;7.358;2023-12-20T00:39:04;15.37;;;9.40;;
37309;SDS011;23195;47.744;7.358;2023-12-20T00:41:30;15.80;;;10.10;;
37309;SDS011;23195;47.744;7.358;2023-12-20T00:43:58;13.97;;;8.77;;
37309;SDS011;23195;47.744;7.358;2023-12-20T00:46:24;16.17;;;8.80;;
37309;SDS011;23195;47.744;7.358;2023-12-20T00:48:49;12.57;;;7.97;;
37309;SDS011;23195;47.744;7.358;2023-12-20T00:51:15;12.27;;;7.80;;
37309;SDS011;23195;47.744;7.358;2023-12-20T00:53:41;12.10;;;8.10;;
37309;SDS011;23195;47.744;7.358;2023-12-20T00:56:06;12.97;;;7.73;;
37309;SDS011;23195;47.744;7.358;2023-12-20T00:58:33;13.03;;;7.37;;
37309;SDS011;23195;47.744;7.358;2023-12-20T01:00:59;11.93;;;7.60;;
37309;SDS011;23195;47.744;7.358;2023-12-20T01:03:24;12.27;;;7.20;;
37309;SDS011;23195;47.744;7.358;2023-12-20T01:05:50;10.73;;;7.13;;
37309;SDS011;23195;47.744;7.358;2023-12-20T01:08:16;12.57;;;7.53;;
37309;SDS011;23195;47.744;7.358;2023-12-20T01:10:42;10.97;;;7.27;;
37309;SDS011;23195;47.744;7.358;2023-12-20T01:13:07;11.67;;;7.27;;
37309;SDS011;23195;47.744;7.358;2023-12-20T01:15:34;12.67;;;7.50;;
37309;SDS011;23195;47.744;7.358;2023-12-20T01:17:59;11.70;;;7.30;;
37309;SDS011;23195;47.744;7.358;2023-12-20T01:20:25;10.47;;;6.87;;
37309;SDS011;23195;47.744;7.358;2023-12-20T01:22:51;11.63;;;7.33;;
37309;SDS011;23195;47.744;7.358;2023-12-20T01:25:16;11.77;;;7.43;;
37309;SDS011;23195;47.744;7.358;2023-12-20T01:27:42;9.47;;;6.90;;
37309;SDS011;23195;47.744;7.358;2023-12-20T01:30:08;11.13;;;6.77;;
37309;SDS011;23195;47.744;7.358;2023-12-20T01:32:34;10.17;;;6.27;;
37309;SDS011;23195;47.744;7.358;2023-12-20T01:35:00;10.03;;;6.60;;
37309;SDS011;23195;47.744;7.358;2023-12-20T01:37:25;9.87;;;6.17;;
37309;SDS011;23195;47.744;7.358;2023-12-20T01:39:51;7.33;;;5.57;;
37309;SDS011;23195;47.744;7.358;2023-12-20T01:42:18;7.37;;;5.23;;
37309;SDS011;23195;47.744;7.358;2023-12-20T01:44:43;6.23;;;4.60;;
37309;SDS011;23195;47.744;7.358;2023-12-20T01:47:09;5.87;;;4.27;;
37309;SDS011;23195;47.744;7.358;2023-12-20T01:49:35;7.03;;;4.67;;
37309;SDS011;23195;47.744;7.358;2023-12-20T01:52:01;4.80;;;3.60;;
37309;SDS011;23195;47.744;7.358;2023-12-20T01:54:27;4.10;;;3.33;;
37309;SDS011;23195;47.744;7.358;2023-12-20T01:56:53;4.27;;;3.50;;
37309;SDS011;23195;47.744;7.358;2023-12-20T01:59:19;4.83;;;3.43;;
37309;SDS011;23195;47.744;7.358;2023-12-20T02:01:48;13.00;;;9.60;;
37309;SDS011;23195;47.744;7.358;2023-12-20T02:04:14;6.30;;;5.13;;
37309;SDS011;23195;47.744;7.358;2023-12-20T02:06:41;6.13;;;4.37;;
37309;SDS011;23195;47.744;7.358;2023-12-20T02:09:08;2.60;;;2.40;;
37309;SDS011;23195;47.744;7.358;2023-12-20T02:11:34;2.40;;;1.80;;
37309;SDS011;23195;47.744;7.358;2023-12-20T02:14:01;1.90;;;1.70;;
37309;SDS011;23195;47.744;7.358;2023-12-20T02:16:27;2.00;;;1.80;;
37309;SDS011;23195;47.744;7.358;2023-12-20T02:18:53;2.20;;;1.30;;
37309;SDS011;23195;47.744;7.358;2023-12-20T02:21:23;2.80;;;1.70;;
37309;SDS011;23195;47.744;7.358;2023-12-20T02:24:00;1.67;;;1.57;;
37309;SDS011;23195;47.744;7.358;2023-12-20T02:26:25;2.30;;;2.03;;
37309;SDS011;23195;47.744;7.358;2023-12-20T02:28:51;1.57;;;1.43;;
37309;SDS011;23195;47.744;7.358;2023-12-20T02:31:20;1.40;;;1.27;;
37309;SDS011;23195;47.744;7.358;2023-12-20T02:33:47;1.23;;;1.13;;
37309;SDS011;23195;47.744;7.358;2023-12-20T02:36:13;2.03;;;1.60;;
37309;SDS011;23195;47.744;7.358;2023-12-20T02:38:38;1.67;;;1.53;;
37309;SDS011;23195;47.744;7.358;2023-12-20T02:41:04;2.03;;;1.57;;
37309;SDS011;23195;47.744;7.358;2023-12-20T02:43:30;2.83;;;1.70;;
37309;SDS011;23195;47.744;7.358;2023-12-20T02:45:56;1.97;;;1.63;;
37309;SDS011;23195;47.744;7.358;2023-12-20T02:48:22;2.20;;;1.60;;
37309;SDS011;23195;47.744;7.358;2023-12-20T02:52:10;1.87;;;1.50;;
37309;SDS011;23195;47.744;7.358;2023-12-20T02:54:36;3.77;;;1.70;;
37309;SDS011;23195;47.744;7.358;2023-12-20T02:57:01;1.87;;;1.57;;
37309;SDS011;23195;47.744;7.358;2023-12-20T02:59:27;2.57;;;1.60;;
37309;SDS011;23195;47.744;7.358;2023-12-20T03:01:53;1.80;;;1.60;;
37309;SDS011;23195;47.744;7.358;2023-12-20T03:04:19;1.57;;;1.17;;
37309;SDS011;23195;47.744;7.358;2023-12-20T03:06:45;1.60;;;1.50;;
37309;SDS011;23195;47.744;7.358;2023-12-20T03:09:13;1.93;;;1.50;;
37309;SDS011;23195;47.744;7.358;2023-12-20T03:11:39;1.53;;;1.40;;
37309;SDS011;23195;47.744;7.358;2023-12-20T03:14:05;1.50;;;1.40;;
37309;SDS011;23195;47.744;7.358;2023-12-20T03:16:30;1.93;;;1.57;;
37309;SDS011;23195;47.744;7.358;2023-12-20T03:18:58;1.60;;;1.30;;
37309;SDS011;23195;47.744;7.358;2023-12-20T03:21:23;1.97;;;1.27;;
37309;SDS011;23195;47.744;7.358;2023-12-20T03:23:49;2.17;;;1.50;;
37309;SDS011;23195;47.744;7.358;2023-12-20T03:26:15;1.80;;;1.10;;
37309;SDS011;23195;47.744;7.358;2023-12-20T03:28:41;1.20;;;1.10;;
37309;SDS011;23195;47.744;7.358;2023-12-20T03:31:06;2.60;;;2.40;;
37309;SDS011;23195;47.744;7.358;2023-12-20T03:33:32;2.57;;;2.37;;
37309;SDS011;23195;47.744;7.358;2023-12-20T03:35:58;2.73;;;2.17;;
37309;SDS011;23195;47.744;7.358;2023-12-20T03:38:24;3.60;;;3.30;;
37309;SDS011;23195;47.744;7.358;2023-12-20T03:40:49;6.23;;;5.57;;
37309;SDS011;23195;47.744;7.358;2023-12-20T03:43:15;2.10;;;1.90;;
37309;SDS011;23195;47.744;7.358;2023-12-20T03:45:41;1.93;;;1.07;;
37309;SDS011;23195;47.744;7.358;2023-12-20T03:48:07;1.80;;;1.17;;
37309;SDS011;23195;47.744;7.358;2023-12-20T03:50:34;13.03;;;11.73;;
37309;SDS011;23195;47.744;7.358;2023-12-20T03:52:59;8.10;;;7.20;;
37309;SDS011;23195;47.744;7.358;2023-12-20T03:55:25;15.50;;;12.80;;
37309;SDS011;23195;47.744;7.358;2023-12-20T03:57:51;2.50;;;2.30;;
37309;SDS011;23195;47.744;7.358;2023-12-20T04:00:17;2.53;;;2.33;;
37309;SDS011;23195;47.744;7.358;2023-12-20T04:02:43;1.50;;;0.80;;
37309;SDS011;23195;47.744;7.358;2023-12-20T04:05:09;1.20;;;1.07;;
37309;SDS011;23195;47.744;7.358;2023-12-20T04:07:35;1.60;;;1.30;;
37309;SDS011;23195;47.744;7.358;2023-12-20T04:10:01;1.37;;;0.80;;
37309;SDS011;23195;47.744;7.358;2023-12-20T04:12:28;1.20;;;1.00;;
37309;SDS011;23195;47.744;7.358;2023-12-20T04:14:54;1.00;;;0.87;;
37309;SDS011;23195;47.744;7.358;2023-12-20T04:17:20;1.83;;;1.20;;
37309;SDS011;23195;47.744;7.358;2023-12-20T04:19:47;1.40;;;0.90;;
37309;SDS011;23195;47.744;7.358;2023-12-20T04:22:14;0.83;;;0.80;;
37309;SDS011;23195;47.744;7.358;2023-12-20T04:24:39;0.90;;;0.70;;
37309;SDS011;23195;47.744;7.358;2023-12-20T04:27:07;0.77;;;0.77;;
37309;SDS011;23195;47.744;7.358;2023-12-20T04:29:33;1.33;;;0.80;;
37309;SDS011;23195;47.744;7.358;2023-12-20T04:31:59;0.83;;;0.70;;
37309;SDS011;23195;47.744;7.358;2023-12-20T04:34:25;1.27;;;0.80;;
37309;SDS011;23195;47.744;7.358;2023-12-20T04:36:51;0.60;;;0.60;;
37309;SDS011;23195;47.744;7.358;2023-12-20T04:39:18;1.30;;;0.80;;
37309;SDS011;23195;47.744;7.358;2023-12-20T04:41:44;1.00;;;0.90;;
37309;SDS011;23195;47.744;7.358;2023-12-20T04:44:09;1.20;;;0.90;;
37309;SDS011;23195;47.744;7.358;2023-12-20T04:46:35;1.00;;;0.90;;
37309;SDS011;23195;47.744;7.358;2023-12-20T04:49:01;0.60;;;0.60;;
37309;SDS011;23195;47.744;7.358;2023-12-20T04:51:27;1.07;;;0.70;;
37309;SDS011;23195;47.744;7.358;2023-12-20T04:53:55;0.80;;;0.70;;
37309;SDS011;23195;47.744;7.358;2023-12-20T04:56:22;0.70;;;0.60;;
37309;SDS011;23195;47.744;7.358;2023-12-20T04:58:48;0.97;;;0.47;;
37309;SDS011;23195;47.744;7.358;2023-12-20T05:01:14;0.60;;;0.43;;
37309;SDS011;23195;47.744;7.358;2023-12-20T05:03:40;0.60;;;0.50;;
37309;SDS011;23195;47.744;7.358;2023-12-20T05:06:06;0.73;;;0.73;;
37309;SDS011;23195;47.744;7.358;2023-12-20T05:08:31;0.83;;;0.50;;
37309;SDS011;23195;47.744;7.358;2023-12-20T05:10:57;1.47;;;0.50;;
37309;SDS011;23195;47.744;7.358;2023-12-20T05:13:23;0.40;;;0.40;;
37309;SDS011;23195;47.744;7.358;2023-12-20T05:15:49;0.37;;;0.30;;
37309;SDS011;23195;47.744;7.358;2023-12-20T05:18:14;0.50;;;0.47;;
37309;SDS011;23195;47.744;7.358;2023-12-20T05:20:40;1.33;;;0.50;;
37309;SDS011;23195;47.744;7.358;2023-12-20T05:23:06;0.43;;;0.40;;
37309;SDS011;23195;47.744;7.358;2023-12-20T05:25:32;0.40;;;0.37;;
37309;SDS011;23195;47.744;7.358;2023-12-20T05:27:57;0.30;;;0.20;;
37309;SDS011;23195;47.744;7.358;2023-12-20T05:30:23;0.60;;;0.30;;
37309;SDS011;23195;47.744;7.358;2023-12-20T05:32:49;0.37;;;0.30;;
37309;SDS011;23195;47.744;7.358;2023-12-20T05:35:15;0.57;;;0.20;;
37309;SDS011;23195;47.744;7.358;2023-12-20T05:37:41;1.90;;;0.30;;
37309;SDS011;23195;47.744;7.358;2023-12-20T05:40:07;0.40;;;0.30;;
37309;SDS011;23195;47.744;7.358;2023-12-20T05:42:38;0.70;;;0.60;;
37309;SDS011;23195;47.744;7.358;2023-12-20T05:45:04;0.30;;;0.30;;
37309;SDS011;23195;47.744;7.358;2023-12-20T05:47:31;1.37;;;1.27;;
37309;SDS011;23195;47.744;7.358;2023-12-20T05:49:56;1.80;;;1.37;;
37309;SDS011;23195;47.744;7.358;2023-12-20T05:52:22;0.30;;;0.30;;
37309;SDS011;23195;47.744;7.358;2023-12-20T05:54:48;0.80;;;0.40;;
37309;SDS011;23195;47.744;7.358;2023-12-20T05:57:14;0.30;;;0.30;;
37309;SDS011;23195;47.744;7.358;2023-12-20T05:59:40;0.60;;;0.60;;
37309;SDS011;23195;47.744;7.358;2023-12-20T06:02:06;0.47;;;0.30;;
37309;SDS011;23195;47.744;7.358;2023-12-20T06:04:31;0.40;;;0.40;;
37309;SDS011;23195;47.744;7.358;2023-12-20T06:06:58;0.67;;;0.40;;
37309;SDS011;23195;47.744;7.358;2023-12-20T06:09:24;0.50;;;0.40;;
37309;SDS011;23195;47.744;7.358;2023-12-20T06:11:51;0.80;;;0.57;;
37309;SDS011;23195;47.744;7.358;2023-12-20T06:14:17;0.60;;;0.50;;
37309;SDS011;23195;47.744;7.358;2023-12-20T06:16:43;0.70;;;0.40;;
37309;SDS011;23195;47.744;7.358;2023-12-20T06:19:11;2.00;;;0.70;;
37309;SDS011;23195;47.744;7.358;2023-12-20T06:21:37;0.87;;;0.63;;
37309;SDS011;23195;47.744;7.358;2023-12-20T06:24:03;2.43;;;1.70;;
37309;SDS011;23195;47.744;7.358;2023-12-20T06:26:29;1.70;;;1.50;;
37309;SDS011;23195;47.744;7.358;2023-12-20T06:28:55;3.50;;;2.90;;
37309;SDS011;23195;47.744;7.358;2023-12-20T06:31:20;2.07;;;1.87;;
37309;SDS011;23195;47.744;7.358;2023-12-20T06:33:46;1.43;;;1.13;;
37309;SDS011;23195;47.744;7.358;2023-12-20T06:36:13;1.23;;;1.00;;
37309;SDS011;23195;47.744;7.358;2023-12-20T06:38:39;2.67;;;1.30;;
37309;SDS011;23195;47.744;7.358;2023-12-20T06:41:05;1.47;;;1.20;;
37309;SDS011;23195;47.744;7.358;2023-12-20T06:43:31;2.10;;;1.63;;
37309;SDS011;23195;47.744;7.358;2023-12-20T06:45:58;3.30;;;2.27;;
37309;SDS011;23195;47.744;7.358;2023-12-20T06:48:25;5.00;;;1.50;;
37309;SDS011;23195;47.744;7.358;2023-12-20T06:50:51;1.93;;;1.73;;
37309;SDS011;23195;47.744;7.358;2023-12-20T06:53:17;1.67;;;1.30;;
37309;SDS011;23195;47.744;7.358;2023-12-20T06:55:45;1.60;;;1.40;;
37309;SDS011;23195;47.744;7.358;2023-12-20T06:58:14;1.97;;;1.57;;
37309;SDS011;23195;47.744;7.358;2023-12-20T07:00:39;1.77;;;1.57;;
37309;SDS011;23195;47.744;7.358;2023-12-20T07:03:09;1.47;;;1.37;;
37309;SDS011;23195;47.744;7.358;2023-12-20T07:05:34;1.70;;;1.50;;
37309;SDS011;23195;47.744;7.358;2023-12-20T07:08:06;2.30;;;1.40;;
37309;SDS011;23195;47.744;7.358;2023-12-20T07:10:39;1.27;;;1.17;;
37309;SDS011;23195;47.744;7.358;2023-12-20T07:13:11;2.47;;;1.80;;
37309;SDS011;23195;47.744;7.358;2023-12-20T07:15:38;2.37;;;2.17;;
37309;SDS011;23195;47.744;7.358;2023-12-20T07:18:04;2.20;;;1.90;;
37309;SDS011;23195;47.744;7.358;2023-12-20T07:20:32;1.67;;;1.57;;
37309;SDS011;23195;47.744;7.358;2023-12-20T07:23:02;2.03;;;1.70;;
37309;SDS011;23195;47.744;7.358;2023-12-20T07:25:33;2.33;;;1.80;;
37309;SDS011;23195;47.744;7.358;2023-12-20T07:27:59;2.00;;;1.77;;
37309;SDS011;23195;47.744;7.358;2023-12-20T07:30:29;4.20;;;3.33;;
37309;SDS011;23195;47.744;7.358;2023-12-20T07:32:55;5.73;;;3.97;;
37309;SDS011;23195;47.744;7.358;2023-12-20T07:35:23;3.87;;;2.60;;
37309;SDS011;23195;47.744;7.358;2023-12-20T07:37:49;3.70;;;3.23;;
37309;SDS011;23195;47.744;7.358;2023-12-20T07:40:14;3.20;;;2.90;;
37309;SDS011;23195;47.744;7.358;2023-12-20T07:42:42;3.20;;;2.70;;
37309;SDS011;23195;47.744;7.358;2023-12-20T07:45:08;3.50;;;2.63;;
37309;SDS011;23195;47.744;7.358;2023-12-20T07:47:35;3.13;;;2.60;;
37309;SDS011;23195;47.744;7.358;2023-12-20T07:50:01;3.27;;;2.63;;
37309;SDS011;23195;47.744;7.358;2023-12-20T07:52:29;3.87;;;3.17;;
37309;SDS011;23195;47.744;7.358;2023-12-20T07:54:55;3.63;;;2.93;;
37309;SDS011;23195;47.744;7.358;2023-12-20T07:57:21;3.83;;;3.10;;
37309;SDS011;23195;47.744;7.358;2023-12-20T07:59:47;3.50;;;2.83;;
37309;SDS011;23195;47.744;7.358;2023-12-20T08:02:12;3.50;;;3.20;;
37309;SDS011;23195;47.744;7.358;2023-12-20T08:04:41;4.80;;;2.80;;
37309;SDS011;23195;47.744;7.358;2023-12-20T08:07:07;3.00;;;2.70;;
37309;SDS011;23195;47.744;7.358;2023-12-20T08:09:32;4.03;;;3.30;;
37309;SDS011;23195;47.744;7.358;2023-12-20T08:11:59;4.43;;;3.83;;
37309;SDS011;23195;47.744;7.358;2023-12-20T08:14:25;5.50;;;4.30;;
37309;SDS011;23195;47.744;7.358;2023-12-20T08:16:51;5.13;;;4.20;;
37309;SDS011;23195;47.744;7.358;2023-12-20T08:19:16;5.23;;;3.47;;
37309;SDS011;23195;47.744;7.358;2023-12-20T08:21:42;4.77;;;3.90;;
37309;SDS011;23195;47.744;7.358;2023-12-20T08:24:08;6.27;;;4.17;;
37309;SDS011;23195;47.744;7.358;2023-12-20T08:26:33;6.00;;;4.23;;
37309;SDS011;23195;47.744;7.358;2023-12-20T08:28:59;5.93;;;4.63;;
37309;SDS011;23195;47.744;7.358;2023-12-20T08:31:25;6.77;;;4.97;;
37309;SDS011;23195;47.744;7.358;2023-12-20T08:33:51;6.43;;;4.80;;
37309;SDS011;23195;47.744;7.358;2023-12-20T08:36:18;5.83;;;4.53;;
37309;SDS011;23195;47.744;7.358;2023-12-20T08:38:46;7.73;;;4.40;;
37309;SDS011;23195;47.744;7.358;2023-12-20T08:41:12;5.93;;;3.93;;
37309;SDS011;23195;47.744;7.358;2023-12-20T08:43:38;4.67;;;3.67;;
37309;SDS011;23195;47.744;7.358;2023-12-20T08:46:07;6.37;;;4.30;;
37309;SDS011;23195;47.744;7.358;2023-12-20T08:48:34;6.53;;;4.20;;
37309;SDS011;23195;47.744;7.358;2023-12-20T08:51:00;6.13;;;4.10;;
37309;SDS011;23195;47.744;7.358;2023-12-20T08:53:26;8.93;;;4.70;;
37309;SDS011;23195;47.744;7.358;2023-12-20T08:55:52;7.10;;;5.23;;
37309;SDS011;23195;47.744;7.358;2023-12-20T08:58:18;7.30;;;4.67;;
37309;SDS011;23195;47.744;7.358;2023-12-20T09:00:44;7.50;;;5.30;;
37309;SDS011;23195;47.744;7.358;2023-12-20T09:03:13;8.30;;;4.93;;
37309;SDS011;23195;47.744;7.358;2023-12-20T09:05:38;7.23;;;4.50;;
37309;SDS011;23195;47.744;7.358;2023-12-20T09:08:04;4.93;;;4.23;;
37309;SDS011;23195;47.744;7.358;2023-12-20T09:10:33;6.37;;;4.63;;
37309;SDS011;23195;47.744;7.358;2023-12-20T09:13:09;8.50;;;5.13;;
37309;SDS011;23195;47.744;7.358;2023-12-20T09:15:37;6.47;;;4.53;;
37309;SDS011;23195;47.744;7.358;2023-12-20T09:18:03;6.80;;;4.40;;
37309;SDS011;23195;47.744;7.358;2023-12-20T09:20:29;6.53;;;4.60;;
37309;SDS011;23195;47.744;7.358;2023-12-20T09:22:55;6.53;;;4.90;;
37309;SDS011;23195;47.744;7.358;2023-12-20T09:25:21;8.57;;;7.60;;
37309;SDS011;23195;47.744;7.358;2023-12-20T09:27:48;5.93;;;4.93;;
37309;SDS011;23195;47.744;7.358;2023-12-20T09:30:17;6.77;;;4.50;;
37309;SDS011;23195;47.744;7.358;2023-12-20T09:32:43;7.63;;;5.30;;
37309;SDS011;23195;47.744;7.358;2023-12-20T09:35:12;6.23;;;4.93;;
37309;SDS011;23195;47.744;7.358;2023-12-20T09:37:38;5.43;;;4.53;;
37309;SDS011;23195;47.744;7.358;2023-12-20T09:40:06;5.37;;;4.63;;
37309;SDS011;23195;47.744;7.358;2023-12-20T09:42:48;6.50;;;4.17;;
37309;SDS011;23195;47.744;7.358;2023-12-20T09:45:24;5.80;;;4.60;;
37309;SDS011;23195;47.744;7.358;2023-12-20T09:47:53;6.40;;;4.20;;
37309;SDS011;23195;47.744;7.358;2023-12-20T09:50:22;4.77;;;3.67;;
37309;SDS011;23195;47.744;7.358;2023-12-20T09:52:51;5.53;;;4.20;;
37309;SDS011;23195;47.744;7.358;2023-12-20T09:55:18;5.00;;;3.90;;
37309;SDS011;23195;47.744;7.358;2023-12-20T09:57:45;5.73;;;3.97;;
37309;SDS011;23195;47.744;7.358;2023-12-20T10:00:12;6.93;;;4.43;;
37309;SDS011;23195;47.744;7.358;2023-12-20T10:02:39;6.70;;;4.50;;
37309;SDS011;23195;47.744;7.358;2023-12-20T10:05:11;8.73;;;4.80;;
37309;SDS011;23195;47.744;7.358;2023-12-20T10:07:52;6.70;;;5.00;;
37309;SDS011;23195;47.744;7.358;2023-12-20T10:10:18;9.00;;;5.30;;
37309;SDS011;23195;47.744;7.358;2023-12-20T10:15:34;7.47;;;4.70;;
37309;SDS011;23195;47.744;7.358;2023-12-20T10:18:01;7.47;;;4.53;;
37309;SDS011;23195;47.744;7.358;2023-12-20T10:20:29;6.93;;;4.50;;
37309;SDS011;23195;47.744;7.358;2023-12-20T10:22:56;6.63;;;4.70;;
37309;SDS011;23195;47.744;7.358;2023-12-20T10:25:23;8.67;;;4.43;;
37309;SDS011;23195;47.744;7.358;2023-12-20T10:27:50;9.37;;;5.13;;
37309;SDS011;23195;47.744;7.358;2023-12-20T10:30:34;7.00;;;4.90;;
37309;SDS011;23195;47.744;7.358;2023-12-20T10:33:01;6.03;;;4.20;;
37309;SDS011;23195;47.744;7.358;2023-12-20T10:35:27;5.33;;;4.10;;
37309;SDS011;23195;47.744;7.358;2023-12-20T10:37:55;5.10;;;4.33;;
37309;SDS011;23195;47.744;7.358;2023-12-20T10:40:21;7.03;;;4.03;;
37309;SDS011;23195;47.744;7.358;2023-12-20T10:42:48;6.77;;;4.07;;
37309;SDS011;23195;47.744;7.358;2023-12-20T10:45:15;5.13;;;3.87;;
37309;SDS011;23195;47.744;7.358;2023-12-20T10:47:43;7.50;;;4.17;;
37309;SDS011;23195;47.744;7.358;2023-12-20T10:50:12;5.13;;;4.20;;
37309;SDS011;23195;47.744;7.358;2023-12-20T10:52:41;7.50;;;4.13;;
37309;SDS011;23195;47.744;7.358;2023-12-20T10:55:10;7.63;;;4.33;;
37309;SDS011;23195;47.744;7.358;2023-12-20T10:57:36;8.43;;;4.40;;
37309;SDS011;23195;47.744;7.358;2023-12-20T11:00:02;5.13;;;4.00;;
37309;SDS011;23195;47.744;7.358;2023-12-20T11:02:29;6.37;;;4.13;;
37309;SDS011;23195;47.744;7.358;2023-12-20T11:07:37;5.10;;;3.33;;
37309;SDS011;23195;47.744;7.358;2023-12-20T11:12:52;5.37;;;2.77;;
37309;SDS011;23195;47.744;7.358;2023-12-20T11:15:22;5.93;;;3.00;;
37309;SDS011;23195;47.744;7.358;2023-12-20T11:17:55;4.43;;;2.80;;
37309;SDS011;23195;47.744;7.358;2023-12-20T11:20:35;5.00;;;3.10;;
37309;SDS011;23195;47.744;7.358;2023-12-20T11:23:05;5.00;;;2.70;;
37309;SDS011;23195;47.744;7.358;2023-12-20T11:28:23;4.10;;;2.30;;
37309;SDS011;23195;47.744;7.358;2023-12-20T11:30:53;5.93;;;1.93;;
37309;SDS011;23195;47.744;7.358;2023-12-20T11:33:23;5.40;;;1.80;;
37309;SDS011;23195;47.744;7.358;2023-12-20T11:35:55;3.80;;;1.40;;
37309;SDS011;23195;47.744;7.358;2023-12-20T11:38:21;4.47;;;1.80;;
37309;SDS011;23195;47.744;7.358;2023-12-20T11:40:48;3.73;;;1.73;;
37309;SDS011;23195;47.744;7.358;2023-12-20T11:46:03;5.83;;;2.27;;
37309;SDS011;23195;47.744;7.358;2023-12-20T11:48:34;4.37;;;1.50;;
37309;SDS011;23195;47.744;7.358;2023-12-20T11:51:02;6.90;;;2.40;;
37309;SDS011;23195;47.744;7.358;2023-12-20T11:53:34;4.10;;;2.00;;
37309;SDS011;23195;47.744;7.358;2023-12-20T11:56:00;5.50;;;2.20;;
37309;SDS011;23195;47.744;7.358;2023-12-20T11:58:28;5.17;;;1.80;;
37309;SDS011;23195;47.744;7.358;2023-12-20T12:00:56;4.13;;;1.90;;
37309;SDS011;23195;47.744;7.358;2023-12-20T12:03:22;9.97;;;2.17;;
37309;SDS011;23195;47.744;7.358;2023-12-20T12:05:49;4.60;;;1.63;;
37309;SDS011;23195;47.744;7.358;2023-12-20T12:08:14;3.43;;;1.60;;
37309;SDS011;23195;47.744;7.358;2023-12-20T12:10:40;3.77;;;1.87;;
37309;SDS011;23195;47.744;7.358;2023-12-20T12:13:09;6.40;;;1.30;;
37309;SDS011;23195;47.744;7.358;2023-12-20T12:15:36;6.80;;;1.43;;
37309;SDS011;23195;47.744;7.358;2023-12-20T12:18:02;8.20;;;2.50;;
37309;SDS011;23195;47.744;7.358;2023-12-20T12:20:30;5.67;;;2.80;;
37309;SDS011;23195;47.744;7.358;2023-12-20T12:22:59;4.53;;;1.90;;
37309;SDS011;23195;47.744;7.358;2023-12-20T12:25:28;5.07;;;1.50;;
37309;SDS011;23195;47.744;7.358;2023-12-20T12:27:55;5.60;;;1.60;;
37309;SDS011;23195;47.744;7.358;2023-12-20T12:30:21;6.00;;;1.83;;
37309;SDS011;23195;47.744;7.358;2023-12-20T12:32:47;10.17;;;2.33;;
37309;SDS011;23195;47.744;7.358;2023-12-20T12:35:13;9.17;;;1.90;;
37309;SDS011;23195;47.744;7.358;2023-12-20T12:37:40;4.90;;;1.70;;
37309;SDS011;23195;47.744;7.358;2023-12-20T12:40:07;8.30;;;3.40;;
37309;SDS011;23195;47.744;7.358;2023-12-20T12:42:37;7.57;;;2.97;;
37309;SDS011;23195;47.744;7.358;2023-12-20T12:45:03;10.03;;;2.80;;
37309;SDS011;23195;47.744;7.358;2023-12-20T12:47:29;4.67;;;2.33;;
37309;SDS011;23195;47.744;7.358;2023-12-20T12:49:55;6.20;;;1.73;;
37309;SDS011;23195;47.744;7.358;2023-12-20T12:52:21;4.53;;;1.50;;
37309;SDS011;23195;47.744;7.358;2023-12-20T12:54:47;6.63;;;1.20;;
37309;SDS011;23195;47.744;7.358;2023-12-20T12:57:16;3.90;;;1.30;;
37309;SDS011;23195;47.744;7.358;2023-12-20T12:59:42;4.40;;;1.43;;
37309;SDS011;23195;47.744;7.358;2023-12-20T13:02:10;7.23;;;1.70;;
37309;SDS011;23195;47.744;7.358;2023-12-20T13:04:36;4.47;;;1.43;;
37309;SDS011;23195;47.744;7.358;2023-12-20T13:07:02;8.27;;;2.20;;
37309;SDS011;23195;47.744;7.358;2023-12-20T13:09:46;8.20;;;2.30;;
37309;SDS011;23195;47.744;7.358;2023-12-20T13:12:12;5.47;;;1.90;;
37309;SDS011;23195;47.744;7.358;2023-12-20T13:14:38;7.73;;;2.20;;
37309;SDS011;23195;47.744;7.358;2023-12-20T13:17:08;10.40;;;2.30;;
37309;SDS011;23195;47.744;7.358;2023-12-20T13:19:34;8.17;;;2.30;;
37309;SDS011;23195;47.744;7.358;2023-12-20T13:22:00;8.30;;;2.20;;
37309;SDS011;23195;47.744;7.358;2023-12-20T13:24:26;5.83;;;2.10;;
37309;SDS011;23195;47.744;7.358;2023-12-20T13:26:51;5.63;;;1.30;;
37309;SDS011;23195;47.744;7.358;2023-12-20T13:29:17;4.47;;;1.30;;
37309;SDS011;23195;47.744;7.358;2023-12-20T13:31:43;3.10;;;1.10;;
37309;SDS011;23195;47.744;7.358;2023-12-20T13:34:09;4.10;;;1.50;;
37309;SDS011;23195;47.744;7.358;2023-12-20T13:36:35;5.60;;;1.50;;
37309;SDS011;23195;47.744;7.358;2023-12-20T13:39:01;6.87;;;1.90;;
37309;SDS011;23195;47.744;7.358;2023-12-20T13:41:29;7.40;;;1.60;;
37309;SDS011;23195;47.744;7.358;2023-12-20T13:43:55;4.77;;;1.60;;
37309;SDS011;23195;47.744;7.358;2023-12-20T13:46:21;4.70;;;1.40;;
37309;SDS011;23195;47.744;7.358;2023-12-20T13:48:46;5.30;;;2.13;;
37309;SDS011;23195;47.744;7.358;2023-12-20T13:51:12;10.43;;;2.00;;
37309;SDS011;23195;47.744;7.358;2023-12-20T13:53:40;7.43;;;1.90;;
37309;SDS011;23195;47.744;7.358;2023-12-20T13:56:06;5.47;;;1.80;;
37309;SDS011;23195;47.744;7.358;2023-12-20T13:58:32;7.97;;;1.90;;
37309;SDS011;23195;47.744;7.358;2023-12-20T14:00:58;8.53;;;2.30;;
37309;SDS011;23195;47.744;7.358;2023-12-20T14:03:24;4.33;;;2.03;;
37309;SDS011;23195;47.744;7.358;2023-12-20T14:05:49;5.90;;;2.27;;
37309;SDS011;23195;47.744;7.358;2023-12-20T14:08:18;6.97;;;2.37;;
37309;SDS011;23195;47.744;7.358;2023-12-20T14:10:43;7.23;;;2.40;;
37309;SDS011;23195;47.744;7.358;2023-12-20T14:13:12;9.93;;;2.57;;
37309;SDS011;23195;47.744;7.358;2023-12-20T14:15:37;8.07;;;2.30;;
37309;SDS011;23195;47.744;7.358;2023-12-20T14:18:06;6.40;;;1.80;;
37309;SDS011;23195;47.744;7.358;2023-12-20T14:20:33;9.63;;;2.20;;
37309;SDS011;23195;47.744;7.358;2023-12-20T14:23:03;4.07;;;2.00;;
37309;SDS011;23195;47.744;7.358;2023-12-20T14:25:29;5.77;;;2.50;;
37309;SDS011;23195;47.744;7.358;2023-12-20T14:27:57;6.87;;;2.30;;
37309;SDS011;23195;47.744;7.358;2023-12-20T14:30:23;5.27;;;2.20;;
37309;SDS011;23195;47.744;7.358;2023-12-20T14:32:49;6.03;;;2.60;;
37309;SDS011;23195;47.744;7.358;2023-12-20T14:35:15;6.43;;;2.63;;
37309;SDS011;23195;47.744;7.358;2023-12-20T14:37:41;7.97;;;2.77;;
37309;SDS011;23195;47.744;7.358;2023-12-20T14:40:07;11.27;;;3.07;;
37309;SDS011;23195;47.744;7.358;2023-12-20T14:42:42;9.17;;;2.60;;
37309;SDS011;23195;47.744;7.358;2023-12-20T14:45:09;10.90;;;2.67;;
37309;SDS011;23195;47.744;7.358;2023-12-20T14:47:35;5.20;;;2.17;;
37309;SDS011;23195;47.744;7.358;2023-12-20T14:50:04;8.37;;;2.27;;
37309;SDS011;23195;47.744;7.358;2023-12-20T14:52:32;9.87;;;2.43;;
37309;SDS011;23195;47.744;7.358;2023-12-20T14:55:01;10.60;;;2.33;;
37309;SDS011;23195;47.744;7.358;2023-12-20T14:57:28;6.33;;;1.70;;